Startpagina
METAR-TAF:

METAR-TAF

Vliegvelden :

Ndjamena, Tsjaad

breedte: 12-08N, lengte: 015-02E, hoogte: 295 m

Actueel weer

Dit bericht is 1 uur en het 18 minuten geleden gemaakt, om 20:00 UTC
Wind 4 kt uit het noorden
Temperatuur 20°C
Vochtigheid 17%
Druk 1014 hPa
Zicht 10 km of meer
geen wolken onder 1500 m en geen cumulonimbus

METAR: FTTJ 162000Z 35004KT CAVOK 20/M06 Q1014 NOSIG

Tijdstip: 22:18 (21:18 UTC)

Verwachting

Dit bericht is 4 uur en het 18 minuten geleden gemaakt, om 17:00 UTC
Verwachting geldig van 16 om 18 UTC tot 17 om 24 UTC
Wind 10 kt uit het noordoosten
Zicht: 3000 m
verspreid stof
Tijdelijke
van 17 om 03 UTC tot 17 om 09 UTC
Zicht: 1500 m

TAF: FTTJ 161700Z 1618/1724 04010KT 3000 DU NSC TEMPO 1703/1709 1500

Waarnemingen en weersverwachtingen van meer dan 4000 vliegvelden (METAR en TAF).

De beschikbare stations zijn de gele en rode punten op de kaart.

Ga met uw muis naar het station om de naam te zien.

Klik dan om waarnemingen en weersverwachtingen te zien.

kaart wijzigen: klik op de groene knoppen met een zwart kruis om in te zoomen, op de groene knop met een streepje om uit te zoomen of op de groene pijlen voor aangrenzende kaarten.


METAR-TAF: